createdAt,value
2017-09-16T00:00:02.195Z,1.10
2017-09-16T00:02:29.644Z,1.10
2017-09-16T00:04:57.059Z,0.87
2017-09-16T00:07:24.471Z,1.20
2017-09-16T00:09:51.945Z,1.10
2017-09-16T00:12:19.374Z,1.02
2017-09-16T00:14:46.806Z,0.93
2017-09-16T00:17:14.246Z,0.90
2017-09-16T00:19:41.668Z,1.03
2017-09-16T00:22:09.078Z,0.90
2017-09-16T00:24:36.548Z,1.00
2017-09-16T00:27:03.974Z,1.10
2017-09-16T00:29:31.396Z,1.00
2017-09-16T00:31:58.834Z,0.90
2017-09-16T00:34:26.250Z,1.20
2017-09-16T00:36:53.667Z,1.37
2017-09-16T00:39:21.147Z,1.00
2017-09-16T00:41:48.565Z,0.90
2017-09-16T00:44:15.967Z,1.20
2017-09-16T00:46:43.420Z,1.03
2017-09-16T00:49:10.841Z,0.90
2017-09-16T00:51:38.260Z,1.10
2017-09-16T00:54:05.839Z,1.20
2017-09-16T00:56:33.253Z,1.10
2017-09-16T00:59:00.659Z,0.93
2017-09-16T01:01:28.093Z,0.90
2017-09-16T01:03:55.527Z,0.80
2017-09-16T01:06:22.944Z,1.10
2017-09-16T01:08:50.420Z,1.20
2017-09-16T01:11:17.864Z,1.00
2017-09-16T01:13:45.309Z,1.00
2017-09-16T01:16:12.737Z,0.90
2017-09-16T01:18:40.210Z,0.80
2017-09-16T01:21:07.731Z,1.00
2017-09-16T01:23:35.260Z,1.00
2017-09-16T01:26:02.662Z,1.20
2017-09-16T01:28:30.942Z,1.27
2017-09-16T01:30:58.380Z,0.87
2017-09-16T01:33:25.807Z,1.10
2017-09-16T01:35:53.231Z,1.00
2017-09-16T01:38:20.680Z,1.10
2017-09-16T01:40:48.097Z,0.83
2017-09-16T01:43:15.512Z,0.90
2017-09-16T01:45:43.044Z,1.00
2017-09-16T01:48:10.473Z,0.90
2017-09-16T01:50:37.885Z,0.90
2017-09-16T01:53:05.314Z,1.00
2017-09-16T01:55:32.731Z,1.10
2017-09-16T01:58:00.145Z,0.90
2017-09-16T02:00:27.582Z,1.00
2017-09-16T02:02:54.996Z,0.90
2017-09-16T02:05:22.673Z,0.90
2017-09-16T02:07:50.124Z,0.90
2017-09-16T02:10:17.573Z,0.85
2017-09-16T02:12:44.981Z,1.10
2017-09-16T02:15:12.450Z,0.77
2017-09-16T02:17:39.866Z,0.90
2017-09-16T02:20:07.276Z,1.13
2017-09-16T02:22:34.695Z,1.00
2017-09-16T02:25:02.108Z,0.90
2017-09-16T02:27:29.515Z,1.00
2017-09-16T02:29:56.966Z,0.93
2017-09-16T02:32:24.386Z,0.83
2017-09-16T02:34:51.855Z,1.00
2017-09-16T02:37:19.274Z,1.07
2017-09-16T02:39:46.679Z,0.80
2017-09-16T02:42:14.093Z,1.03
2017-09-16T02:44:41.532Z,1.10
2017-09-16T02:47:09.243Z,0.80
2017-09-16T02:49:36.655Z,1.00
2017-09-16T02:52:04.066Z,0.90
2017-09-16T02:54:31.499Z,0.80
2017-09-16T02:56:58.914Z,0.80
2017-09-16T02:59:26.391Z,1.00
2017-09-16T03:01:53.820Z,1.00
2017-09-16T03:04:21.236Z,1.07
2017-09-16T03:06:48.670Z,0.90
2017-09-16T03:09:16.156Z,0.90
2017-09-16T03:11:43.807Z,0.90
2017-09-16T03:14:11.269Z,0.80
2017-09-16T03:16:38.678Z,0.80
2017-09-16T03:19:06.199Z,0.90
2017-09-16T03:21:33.623Z,0.80
2017-09-16T03:24:01.067Z,0.90
2017-09-16T03:26:28.481Z,1.00
2017-09-16T03:28:55.948Z,0.90
2017-09-16T03:31:23.359Z,1.10
2017-09-16T03:33:50.808Z,0.90
2017-09-16T03:36:18.261Z,0.90
2017-09-16T03:38:45.673Z,0.90
2017-09-16T03:41:13.081Z,0.83
2017-09-16T03:43:40.535Z,0.90
2017-09-16T03:46:07.959Z,1.00
2017-09-16T03:48:35.465Z,1.08
2017-09-16T03:51:02.924Z,0.93
2017-09-16T03:53:30.370Z,0.90
2017-09-16T03:55:57.784Z,0.90
2017-09-16T03:58:25.226Z,0.73
2017-09-16T04:00:53.293Z,0.80
2017-09-16T04:03:20.700Z,0.80
2017-09-16T04:05:48.130Z,1.03
2017-09-16T04:08:15.534Z,1.00
2017-09-16T04:10:42.946Z,0.90
2017-09-16T04:13:10.415Z,0.90
2017-09-16T04:15:37.859Z,0.80
2017-09-16T04:18:05.485Z,0.80
2017-09-16T04:20:32.953Z,0.87
2017-09-16T04:23:00.379Z,0.83
2017-09-16T04:25:27.835Z,0.87
2017-09-16T04:27:55.300Z,1.10
2017-09-16T04:30:22.707Z,0.80
2017-09-16T04:32:50.714Z,0.87
2017-09-16T04:35:18.167Z,0.90
2017-09-16T04:37:45.583Z,0.85
2017-09-16T04:40:13.024Z,0.80
2017-09-16T04:42:40.487Z,0.80
2017-09-16T04:45:07.903Z,0.90
2017-09-16T04:47:35.330Z,0.90
2017-09-16T04:50:02.798Z,0.90
2017-09-16T04:52:30.206Z,1.00
2017-09-16T04:54:57.716Z,0.80
2017-09-16T04:57:25.190Z,0.90
2017-09-16T04:59:52.726Z,0.80
2017-09-16T05:02:20.154Z,0.90
2017-09-16T05:04:47.608Z,0.97
2017-09-16T05:07:15.030Z,0.97
2017-09-16T05:09:42.496Z,0.80
2017-09-16T05:12:09.920Z,1.00
2017-09-16T05:14:37.400Z,1.00
2017-09-16T05:17:04.819Z,0.97
2017-09-16T05:19:32.314Z,0.90
2017-09-16T05:21:59.727Z,0.90
2017-09-16T05:24:27.143Z,1.00
2017-09-16T05:26:54.585Z,1.47
2017-09-16T05:29:25.763Z,0.90
2017-09-16T05:31:53.173Z,0.90
2017-09-16T05:34:20.653Z,0.88
2017-09-16T05:36:48.181Z,0.80
2017-09-16T05:39:15.607Z,1.00
2017-09-16T05:41:43.056Z,0.87
2017-09-16T05:44:10.473Z,0.83
2017-09-16T05:46:37.875Z,0.77
2017-09-16T05:49:05.296Z,0.90
2017-09-16T05:51:32.794Z,0.90
2017-09-16T05:54:00.213Z,0.93
2017-09-16T05:56:27.751Z,1.30
2017-09-16T05:58:55.168Z,0.90
2017-09-16T06:01:22.600Z,0.90
2017-09-16T06:03:50.036Z,0.80
2017-09-16T06:06:17.606Z,0.93
2017-09-16T06:08:45.012Z,1.10
2017-09-16T06:11:12.434Z,0.97
2017-09-16T06:13:39.849Z,0.80
2017-09-16T06:16:07.318Z,0.83
2017-09-16T06:18:34.842Z,0.80
2017-09-16T06:21:02.383Z,1.00
2017-09-16T06:23:29.808Z,0.80
2017-09-16T06:25:57.351Z,0.85
2017-09-16T06:28:24.769Z,1.27
2017-09-16T06:30:52.203Z,0.80
2017-09-16T06:33:19.648Z,1.13
2017-09-16T06:35:47.059Z,1.10
2017-09-16T06:38:14.475Z,0.97
2017-09-16T06:40:41.925Z,0.97
2017-09-16T06:43:09.359Z,1.30
2017-09-16T06:45:36.843Z,0.90
2017-09-16T06:48:04.291Z,1.20
2017-09-16T06:50:31.811Z,1.10
2017-09-16T06:52:59.218Z,0.90
2017-09-16T06:55:26.688Z,0.93
2017-09-16T06:57:54.122Z,1.20
2017-09-16T07:00:21.539Z,1.17
2017-09-16T07:02:48.984Z,1.10
2017-09-16T07:05:16.400Z,0.93
2017-09-16T07:07:43.876Z,1.00
2017-09-16T07:10:11.324Z,1.00
2017-09-16T07:12:38.759Z,1.53
2017-09-16T07:15:06.232Z,1.60
2017-09-16T07:17:33.654Z,1.30
2017-09-16T07:20:01.068Z,1.03
2017-09-16T07:22:28.474Z,1.37
2017-09-16T07:24:55.950Z,1.25
2017-09-16T07:27:23.415Z,1.20
2017-09-16T07:29:50.848Z,1.10
2017-09-16T07:32:18.327Z,1.65
2017-09-16T07:34:45.723Z,1.20
2017-09-16T07:37:13.155Z,1.10
2017-09-16T07:39:40.623Z,1.37
2017-09-16T07:42:08.044Z,1.33
2017-09-16T07:44:35.467Z,1.63
2017-09-16T07:47:02.918Z,1.10
2017-09-16T07:49:30.346Z,1.30
2017-09-16T07:51:57.762Z,1.93
2017-09-16T07:54:25.288Z,1.30
2017-09-16T07:56:52.851Z,1.77
2017-09-16T07:59:20.425Z,1.30
2017-09-16T08:01:47.930Z,1.30
2017-09-16T08:04:15.356Z,1.40
2017-09-16T08:06:42.792Z,1.30
2017-09-16T08:09:10.226Z,1.10
2017-09-16T08:11:37.646Z,1.30
2017-09-16T08:14:05.751Z,1.17
2017-09-16T08:16:33.199Z,1.73
2017-09-16T08:19:00.628Z,1.20
2017-09-16T08:21:28.047Z,1.40
2017-09-16T08:23:55.513Z,1.40
2017-09-16T08:26:22.935Z,1.30
2017-09-16T08:28:50.372Z,1.63
2017-09-16T08:31:17.803Z,1.73
2017-09-16T08:33:45.328Z,1.47
2017-09-16T08:36:12.780Z,1.50
2017-09-16T08:38:40.213Z,1.43
2017-09-16T08:41:07.755Z,1.70
2017-09-16T08:43:35.185Z,1.53
2017-09-16T08:46:02.704Z,1.57
2017-09-16T08:48:30.120Z,1.40
2017-09-16T08:50:57.535Z,1.93
2017-09-16T08:53:24.953Z,1.67
2017-09-16T08:55:52.374Z,1.23
2017-09-16T08:58:19.788Z,1.60
2017-09-16T09:00:47.329Z,1.40
2017-09-16T09:03:14.742Z,1.80
2017-09-16T09:05:42.172Z,1.47
2017-09-16T09:08:09.631Z,1.90
2017-09-16T09:10:37.052Z,1.50
2017-09-16T09:13:04.474Z,1.47
2017-09-16T09:15:31.939Z,2.13
2017-09-16T09:17:59.360Z,1.87
2017-09-16T09:20:26.771Z,1.90
2017-09-16T09:22:54.202Z,1.40
2017-09-16T09:25:21.603Z,1.50
2017-09-16T09:27:49.095Z,1.90
2017-09-16T09:30:16.558Z,1.50
2017-09-16T09:32:44.014Z,1.70
2017-09-16T09:35:11.451Z,1.93
2017-09-16T09:37:38.908Z,1.60
2017-09-16T09:40:06.322Z,1.90
2017-09-16T09:42:33.744Z,1.40
2017-09-16T09:45:01.246Z,1.40
2017-09-16T09:47:28.668Z,1.60
2017-09-16T09:49:56.096Z,1.90
2017-09-16T09:52:23.551Z,1.83
2017-09-16T09:54:50.962Z,1.80
2017-09-16T09:57:18.463Z,2.20
2017-09-16T09:59:45.886Z,2.33
2017-09-16T10:02:13.298Z,2.07
2017-09-16T10:04:40.718Z,2.13
2017-09-16T10:07:08.158Z,2.00
2017-09-16T10:09:35.632Z,2.20
2017-09-16T10:12:03.046Z,2.00
2017-09-16T10:14:30.522Z,2.00
2017-09-16T10:16:57.942Z,2.47
2017-09-16T10:19:25.345Z,2.17
2017-09-16T10:21:52.790Z,1.70
2017-09-16T10:24:20.203Z,2.43
2017-09-16T10:26:47.625Z,1.60
2017-09-16T10:29:15.089Z,1.90
2017-09-16T10:31:42.515Z,2.20
2017-09-16T10:34:09.935Z,1.90
2017-09-16T10:36:37.380Z,1.73
2017-09-16T10:39:04.798Z,1.97
2017-09-16T10:41:32.215Z,1.70
2017-09-16T10:43:59.710Z,1.60
2017-09-16T10:46:27.134Z,1.67
2017-09-16T10:48:54.542Z,2.10
2017-09-16T10:51:21.964Z,1.60
2017-09-16T10:53:49.386Z,1.73
2017-09-16T10:56:16.794Z,1.93
2017-09-16T10:58:44.232Z,1.50
2017-09-16T11:01:11.661Z,1.60
2017-09-16T11:03:39.088Z,2.03
2017-09-16T11:06:06.521Z,2.10
2017-09-16T11:08:33.932Z,2.00
2017-09-16T11:11:01.349Z,1.43
2017-09-16T11:13:28.771Z,2.10
2017-09-16T11:15:56.181Z,1.83
2017-09-16T11:18:23.708Z,1.50
2017-09-16T11:20:51.158Z,1.63
2017-09-16T11:23:18.631Z,1.70
2017-09-16T11:25:46.043Z,1.40
2017-09-16T11:28:13.480Z,1.60
2017-09-16T11:30:40.906Z,2.07
2017-09-16T11:33:08.320Z,1.37
2017-09-16T11:35:35.765Z,1.50
2017-09-16T11:38:03.195Z,1.70
2017-09-16T11:40:30.600Z,1.40
2017-09-16T11:42:58.176Z,1.40
2017-09-16T11:45:25.641Z,1.40
2017-09-16T11:47:53.056Z,1.37
2017-09-16T11:50:20.508Z,1.60
2017-09-16T11:52:47.917Z,1.33
2017-09-16T11:55:15.546Z,1.50
2017-09-16T11:57:42.964Z,1.60
2017-09-16T12:00:11.337Z,1.40
2017-09-16T12:02:38.771Z,1.73
2017-09-16T12:05:06.248Z,1.77
2017-09-16T12:07:33.747Z,1.70
2017-09-16T12:10:01.215Z,1.90
2017-09-16T12:12:28.657Z,2.27
2017-09-16T12:14:56.063Z,1.73
2017-09-16T12:17:23.483Z,2.10
2017-09-16T12:19:50.936Z,1.83
2017-09-16T12:22:18.358Z,1.70
2017-09-16T12:24:45.791Z,1.77
2017-09-16T12:27:13.356Z,2.07
2017-09-16T12:29:40.787Z,1.60
2017-09-16T12:32:08.213Z,1.60
2017-09-16T12:34:35.670Z,2.10
2017-09-16T12:37:03.081Z,1.80
2017-09-16T12:39:30.504Z,1.60
2017-09-16T12:41:57.940Z,1.50
2017-09-16T12:44:25.421Z,1.80
2017-09-16T12:46:52.850Z,1.70
2017-09-16T12:49:20.380Z,2.00
2017-09-16T12:51:47.794Z,2.17
2017-09-16T12:54:15.203Z,1.97
2017-09-16T12:56:42.655Z,1.47
2017-09-16T12:59:10.079Z,2.00
2017-09-16T13:01:37.493Z,1.92
2017-09-16T13:04:04.951Z,1.63
2017-09-16T13:06:32.382Z,1.50
2017-09-16T13:08:59.787Z,1.50
2017-09-16T13:11:27.231Z,1.53
2017-09-16T13:13:54.639Z,1.40
2017-09-16T13:16:22.059Z,1.60
2017-09-16T13:18:49.510Z,1.90
2017-09-16T13:21:16.926Z,1.47
2017-09-16T13:23:44.351Z,1.33
2017-09-16T13:26:11.791Z,1.70
2017-09-16T13:28:39.305Z,1.60
2017-09-16T13:31:06.728Z,1.50
2017-09-16T13:33:34.234Z,1.40
2017-09-16T13:36:01.652Z,1.77
2017-09-16T13:38:29.086Z,1.63
2017-09-16T13:40:56.560Z,1.30
2017-09-16T13:43:23.985Z,2.00
2017-09-16T13:45:51.429Z,1.50
2017-09-16T13:48:18.868Z,1.37
2017-09-16T13:50:46.305Z,1.50
2017-09-16T13:53:13.730Z,1.50
2017-09-16T13:55:41.166Z,1.50
2017-09-16T13:58:08.572Z,1.20
2017-09-16T14:00:35.984Z,1.80
2017-09-16T14:03:03.448Z,1.43
2017-09-16T14:05:30.907Z,1.53
2017-09-16T14:07:58.327Z,1.40
2017-09-16T14:10:25.761Z,1.30
2017-09-16T14:12:53.181Z,1.33
2017-09-16T14:15:20.604Z,1.30
2017-09-16T14:17:48.018Z,1.23
2017-09-16T14:20:15.451Z,1.45
2017-09-16T14:22:42.868Z,1.53
2017-09-16T14:25:10.293Z,1.43
2017-09-16T14:27:37.771Z,1.20
2017-09-16T14:30:05.955Z,1.40
2017-09-16T14:32:33.414Z,1.33
2017-09-16T14:35:00.822Z,1.50
2017-09-16T14:37:28.304Z,1.30
2017-09-16T14:39:55.743Z,1.63
2017-09-16T14:42:23.171Z,1.30
2017-09-16T14:44:50.580Z,1.27
2017-09-16T14:47:18.197Z,1.50
2017-09-16T14:49:45.631Z,1.40
2017-09-16T14:52:13.052Z,1.30
2017-09-16T14:54:40.476Z,1.17
2017-09-16T14:57:07.963Z,1.13
2017-09-16T14:59:35.401Z,1.10
2017-09-16T15:02:03.220Z,1.20
2017-09-16T15:04:30.650Z,1.00
2017-09-16T15:06:58.079Z,1.00
2017-09-16T15:09:25.521Z,1.10
2017-09-16T15:11:52.940Z,1.07
2017-09-16T15:14:20.348Z,1.00
2017-09-16T15:16:47.796Z,1.30
2017-09-16T15:19:15.200Z,1.00
2017-09-16T15:21:42.619Z,1.10
2017-09-16T15:24:10.082Z,1.10
2017-09-16T15:26:37.496Z,0.90
2017-09-16T15:29:04.925Z,1.00
2017-09-16T15:31:32.356Z,0.90
2017-09-16T15:33:59.785Z,0.90
2017-09-16T15:36:27.212Z,1.80
2017-09-16T15:38:54.708Z,1.00
2017-09-16T15:41:22.172Z,1.00
2017-09-16T15:43:49.602Z,0.83
2017-09-16T15:46:17.035Z,1.20
2017-09-16T15:48:44.452Z,1.10
2017-09-16T15:51:11.874Z,1.30
2017-09-16T15:56:13.241Z,1.37
2017-09-16T15:58:40.669Z,0.97
2017-09-16T16:01:08.199Z,1.00
2017-09-16T16:03:35.607Z,1.10
2017-09-16T16:06:03.037Z,1.20
2017-09-16T16:08:30.449Z,1.30
2017-09-16T16:10:57.866Z,1.20
2017-09-16T16:13:25.313Z,1.40
2017-09-16T16:15:52.729Z,1.00
2017-09-16T16:18:20.156Z,1.53
2017-09-16T16:20:47.609Z,1.43
2017-09-16T16:23:15.043Z,1.50
2017-09-16T16:25:42.459Z,1.60
2017-09-16T16:28:09.923Z,1.30
2017-09-16T16:30:37.343Z,1.20
2017-09-16T16:33:04.758Z,1.20
2017-09-16T16:35:32.230Z,1.50
2017-09-16T16:37:59.661Z,1.60
2017-09-16T16:40:27.348Z,1.70
2017-09-16T16:42:54.778Z,2.57
2017-09-16T16:45:22.188Z,1.80
2017-09-16T16:47:49.613Z,1.50
2017-09-16T16:50:17.079Z,1.12
2017-09-16T16:52:44.510Z,1.50
2017-09-16T16:55:11.930Z,1.07
2017-09-16T16:57:39.361Z,1.40
2017-09-16T17:00:06.842Z,1.60
2017-09-16T17:02:34.378Z,1.67
2017-09-16T17:05:01.877Z,2.17
2017-09-16T17:07:29.286Z,1.17
2017-09-16T17:09:56.774Z,1.27
2017-09-16T17:12:24.219Z,1.00
2017-09-16T17:14:51.648Z,1.90
2017-09-16T17:17:19.054Z,1.30
2017-09-16T17:19:46.535Z,1.10
2017-09-16T17:22:14.002Z,1.53
2017-09-16T17:24:41.406Z,1.50
2017-09-16T17:27:08.891Z,1.37
2017-09-16T17:29:36.296Z,1.20
2017-09-16T17:32:03.698Z,1.40
2017-09-16T17:34:31.117Z,1.03
2017-09-16T17:36:58.523Z,1.40
2017-09-16T17:39:25.946Z,1.50
2017-09-16T17:41:53.388Z,1.37
2017-09-16T17:44:20.932Z,1.13
2017-09-16T17:46:48.346Z,1.20
2017-09-16T17:49:15.785Z,1.57
2017-09-16T17:51:43.224Z,1.37
2017-09-16T17:54:10.661Z,1.70
2017-09-16T17:56:38.165Z,1.58
2017-09-16T17:59:05.615Z,1.60
2017-09-16T18:01:33.050Z,1.17
2017-09-16T18:04:00.478Z,1.40
2017-09-16T18:06:27.914Z,1.30
2017-09-16T18:08:55.337Z,1.40
2017-09-16T18:11:22.778Z,1.37
2017-09-16T18:13:50.189Z,1.20
2017-09-16T18:16:17.670Z,2.27
2017-09-16T18:18:45.128Z,2.00
2017-09-16T18:21:12.544Z,1.60
2017-09-16T18:23:39.965Z,1.43
2017-09-16T18:26:07.414Z,2.10
2017-09-16T18:28:34.814Z,1.50
2017-09-16T18:31:02.257Z,1.67
2017-09-16T18:33:30.039Z,1.70
2017-09-16T18:35:57.454Z,1.40
2017-09-16T18:38:24.877Z,1.30
2017-09-16T18:40:52.310Z,1.40
2017-09-16T18:43:19.721Z,1.30
2017-09-16T18:45:47.131Z,1.80
2017-09-16T18:48:14.567Z,1.30
2017-09-16T18:50:41.986Z,1.63
2017-09-16T18:53:09.398Z,1.23
2017-09-16T18:55:36.862Z,1.67
2017-09-16T18:58:05.270Z,1.50
2017-09-16T19:00:32.675Z,1.27
2017-09-16T19:03:00.113Z,1.27
2017-09-16T19:05:27.529Z,1.90
2017-09-16T19:07:54.952Z,1.53
2017-09-16T19:10:22.493Z,1.40
2017-09-16T19:12:49.904Z,1.30
2017-09-16T19:15:17.338Z,1.30
2017-09-16T19:17:44.759Z,2.70
2017-09-16T19:20:12.260Z,1.73
2017-09-16T19:22:39.676Z,2.10
2017-09-16T19:25:07.113Z,1.97
2017-09-16T19:27:34.533Z,1.80
2017-09-16T19:30:01.967Z,1.60
2017-09-16T19:32:29.411Z,1.60
2017-09-16T19:34:56.839Z,1.50
2017-09-16T19:37:24.252Z,1.50
2017-09-16T19:39:51.681Z,1.87
2017-09-16T19:42:19.104Z,2.03
2017-09-16T19:44:46.527Z,1.90
2017-09-16T19:47:13.965Z,1.90
2017-09-16T19:49:41.376Z,1.40
2017-09-16T19:52:08.796Z,1.93
2017-09-16T19:54:36.298Z,1.93
2017-09-16T19:57:03.801Z,1.43
2017-09-16T19:59:31.205Z,1.73
2017-09-16T20:01:58.654Z,2.40
2017-09-16T20:04:26.171Z,2.40
2017-09-16T20:06:53.595Z,1.53
2017-09-16T20:09:21.115Z,1.60
2017-09-16T20:11:48.524Z,1.30
2017-09-16T20:14:15.946Z,1.30
2017-09-16T20:16:43.395Z,1.60
2017-09-16T20:19:10.802Z,1.47
2017-09-16T20:21:38.226Z,1.77
2017-09-16T20:24:05.673Z,1.33
2017-09-16T20:26:33.278Z,1.27
2017-09-16T20:29:00.698Z,1.27
2017-09-16T20:31:28.125Z,1.40
2017-09-16T20:33:55.570Z,1.73
2017-09-16T20:36:22.992Z,1.27
2017-09-16T20:38:50.539Z,1.50
2017-09-16T20:41:17.942Z,1.50
2017-09-16T20:43:45.472Z,1.10
2017-09-16T20:46:12.907Z,1.47
2017-09-16T20:48:40.380Z,1.33
2017-09-16T20:51:07.809Z,1.80
2017-09-16T20:53:35.255Z,1.20
2017-09-16T20:56:02.665Z,1.37
2017-09-16T20:58:30.077Z,1.80
2017-09-16T21:00:57.675Z,1.10
2017-09-16T21:03:25.084Z,1.70
2017-09-16T21:05:52.512Z,1.43
2017-09-16T21:08:19.987Z,1.17
2017-09-16T21:10:47.404Z,1.40
2017-09-16T21:13:14.826Z,1.40
2017-09-16T21:15:42.282Z,0.97
2017-09-16T21:18:09.701Z,1.20
2017-09-16T21:20:37.112Z,1.10
2017-09-16T21:23:04.575Z,1.62
2017-09-16T21:25:31.985Z,1.13
2017-09-16T21:27:59.480Z,1.40
2017-09-16T21:30:26.941Z,1.60
2017-09-16T21:32:54.358Z,1.20
2017-09-16T21:35:21.762Z,1.10
2017-09-16T21:37:49.231Z,1.50
2017-09-16T21:40:16.643Z,1.20
2017-09-16T21:42:44.113Z,1.40
2017-09-16T21:45:11.605Z,1.03
2017-09-16T21:47:39.035Z,1.23
2017-09-16T21:50:07.173Z,1.20
2017-09-16T21:52:34.609Z,1.00
2017-09-16T21:55:02.056Z,1.00
2017-09-16T21:57:29.470Z,1.00
2017-09-16T21:59:56.973Z,1.10
2017-09-16T22:02:24.405Z,1.17
2017-09-16T22:04:51.816Z,1.50
2017-09-16T22:07:19.263Z,1.50
2017-09-16T22:09:46.681Z,1.50
2017-09-16T22:12:14.085Z,1.40
2017-09-16T22:14:41.550Z,1.75
2017-09-16T22:17:08.968Z,1.23
2017-09-16T22:19:36.376Z,1.20
2017-09-16T22:22:03.800Z,1.10
2017-09-16T22:24:31.219Z,1.70
2017-09-16T22:26:58.647Z,1.10
2017-09-16T22:29:26.099Z,1.60
2017-09-16T22:31:53.571Z,1.30
2017-09-16T22:34:20.971Z,1.37
2017-09-16T22:36:48.423Z,1.37
2017-09-16T22:39:15.872Z,1.50
2017-09-16T22:41:43.291Z,1.30
2017-09-16T22:44:10.765Z,1.60
2017-09-16T22:46:38.221Z,1.37
2017-09-16T22:49:05.627Z,1.20
2017-09-16T22:51:33.068Z,1.07
2017-09-16T22:54:00.496Z,1.20
2017-09-16T22:56:27.912Z,1.50
2017-09-16T22:58:55.374Z,1.53
2017-09-16T23:01:22.823Z,1.27
2017-09-16T23:03:50.242Z,1.07
2017-09-16T23:06:17.690Z,1.20
2017-09-16T23:08:45.218Z,1.10
2017-09-16T23:11:12.666Z,1.10
2017-09-16T23:13:40.167Z,1.40
2017-09-16T23:16:07.590Z,1.20
2017-09-16T23:18:35.009Z,1.60
2017-09-16T23:21:02.431Z,1.30
2017-09-16T23:23:29.861Z,1.10
2017-09-16T23:25:57.286Z,1.13
2017-09-16T23:28:24.764Z,1.10
2017-09-16T23:30:52.172Z,1.40
2017-09-16T23:33:19.596Z,0.97
2017-09-16T23:35:47.071Z,1.10
2017-09-16T23:38:14.494Z,1.10
2017-09-16T23:40:41.920Z,1.20
2017-09-16T23:43:09.371Z,1.30
2017-09-16T23:45:36.780Z,1.10
2017-09-16T23:48:04.206Z,1.10
2017-09-16T23:50:31.857Z,1.17
2017-09-16T23:52:59.286Z,1.10
2017-09-16T23:55:26.682Z,1.30
2017-09-16T23:57:54.129Z,1.10
